Terminal Aerodrome Forecast
Issued by NWS Brownsville, TX

Home | Current Version | Previous Version | Text Only | Print | Product List | Glossary On
Versions: 1 2 3 4 5 6 7 8 9 10 11 12 13 14
000
FTUS44 KBRO 151122
TAFHRL
TAF
KHRL 151122Z 1512/1612 36016G22KT P6SM -RADZ SCT025 OVC100
     FM151400 36014G20KT 6SM -RADZ OVC025
     FM160100 33010KT P6SM VCSH OVC035=

USA.gov is the U.S. government's official web portal to all federal, state and local government web resources and services.